Time;durP1;ratioP1;P1;durP2;ratioP2;P2;SDS_P1;SDS_P2;PMS_P1;PMS_P2;Temp;Humidity;BMP_temperature;BMP_pressure;BME280_temperature;BME280_humidity;BME280_pressure;Samples;Min_cycle;Max_cycle;Signal;HPM_P1;HPM_P2
2023/10/01 00:00:01;;;;;;;7.43;2.22;;;;;;;20.39;49.03;102366.34;16123956;19;130490;-62
2023/10/01 00:05:25;;;;;;;6.45;2.28;;;;;;;20.38;49.04;102359.09;16119026;19;129003;-63
2023/10/01 00:10:48;;;;;;;8.57;2.03;;;;;;;20.37;49.48;102360.16;16124882;19;129309;-62
2023/10/01 00:16:10;;;;;;;4.88;1.70;;;;;;;20.37;49.29;102374.06;16116693;19;129788;-61
2023/10/01 00:21:32;;;;;;;4.75;2.00;;;;;;;20.35;48.98;102367.88;16120400;19;129731;-61
2023/10/01 00:26:54;;;;;;;5.50;1.80;;;;;;;20.34;49.27;102363.38;16116429;19;132336;-61
2023/10/01 00:32:16;;;;;;;7.65;2.25;;;;;;;20.34;49.37;102361.47;16119387;19;131465;-61
2023/10/01 00:37:39;;;;;;;5.65;1.70;;;;;;;20.34;49.33;102360.59;16119316;19;129940;-60
2023/10/01 00:43:04;;;;;;;5.38;2.10;;;;;;;20.35;48.96;102357.63;16115063;19;130907;-61
2023/10/01 00:48:27;;;;;;;;;;;;;;;20.32;48.98;102351.63;16116179;19;129997;-61
2023/10/01 00:53:51;;;;;;;4.05;1.90;;;;;;;20.33;49.46;102353.34;16119353;19;130113;-62
2023/10/01 00:59:14;;;;;;;7.38;1.73;;;;;;;20.33;49.31;102354.19;16116336;19;130587;-61
2023/10/01 01:04:42;;;;;;;5.20;1.70;;;;;;;20.32;49.29;102348.84;16114609;19;129690;-61
2023/10/01 01:10:04;;;;;;;4.13;2.00;;;;;;;20.31;49.45;102334.09;16115632;19;129304;-61
2023/10/01 01:15:27;;;;;;;5.43;1.85;;;;;;;20.31;49.24;102336.06;16112856;19;129848;-61
2023/10/01 01:20:49;;;;;;;5.25;1.90;;;;;;;20.31;48.96;102333.28;16116686;19;130148;-61
2023/10/01 01:26:13;;;;;;;7.35;2.13;;;;;;;20.31;49.25;102323.00;16112778;19;130968;-60
2023/10/01 01:31:45;;;;;;;7.13;2.00;;;;;;;20.29;49.24;102326.00;16115012;19;130223;-61
2023/10/01 01:37:08;;;;;;;4.55;1.58;;;;;;;20.28;49.41;102313.19;16113986;19;130033;-61
2023/10/01 01:42:31;;;;;;;6.75;1.60;;;;;;;20.29;49.03;102311.25;16115494;19;130164;-61
2023/10/01 01:47:53;;;;;;;3.70;1.60;;;;;;;20.27;49.22;102308.69;16118701;19;129578;-61
2023/10/01 01:53:18;;;;;;;3.38;1.42;;;;;;;20.27;49.24;102297.59;16114210;19;130791;-61
2023/10/01 01:58:41;;;;;;;5.68;1.75;;;;;;;20.27;48.99;102296.72;16112542;19;129506;-61
2023/10/01 02:04:04;;;;;;;3.40;1.52;;;;;;;20.27;49.02;102292.03;16110020;19;129764;-60
2023/10/01 02:09:26;;;;;;;4.32;1.48;;;;;;;20.27;49.22;102289.25;16109682;19;129643;-61
2023/10/01 02:14:48;;;;;;;3.75;1.50;;;;;;;20.26;49.39;102281.97;16107508;19;134113;-61
2023/10/01 02:20:20;;;;;;;3.97;1.60;;;;;;;20.24;49.03;102275.78;16113076;19;130686;-61
2023/10/01 02:25:49;;;;;;;3.00;1.38;;;;;;;20.24;49.36;102264.69;16112063;19;129665;-61
2023/10/01 02:31:11;;;;;;;3.25;1.38;;;;;;;20.24;49.36;102273.00;16125824;19;131192;-61
2023/10/01 02:36:35;;;;;;;5.18;1.67;;;;;;;20.23;49.41;102265.75;16127747;19;130210;-61
2023/10/01 02:47:26;;;;;;;3.20;1.35;;;;;;;20.21;49.31;102267.06;16122262;19;129850;-61
2023/10/01 02:52:53;;;;;;;3.85;1.20;;;;;;;20.22;49.39;102282.66;16127770;19;133034;-61
2023/10/01 02:58:20;;;;;;;2.40;1.10;;;;;;;20.20;49.24;102274.53;16122797;19;131077;-61
2023/10/01 03:03:42;;;;;;;2.15;1.15;;;;;;;20.19;48.94;102281.16;16122075;19;130949;-60
2023/10/01 03:09:04;;;;;;;3.15;1.27;;;;;;;20.19;48.97;102274.75;16120990;19;129273;-60
2023/10/01 03:14:26;;;;;;;2.85;1.27;;;;;;;20.18;48.97;102268.38;16120421;19;130538;-61
2023/10/01 03:19:52;;;;;;;2.42;1.10;;;;;;;20.17;49.02;102275.00;16124547;19;131236;-61
2023/10/01 03:25:15;;;;;;;2.47;0.93;;;;;;;20.17;49.03;102271.34;16123698;19;129326;-61
2023/10/01 03:30:40;;;;;;;2.38;1.30;;;;;;;20.16;49.00;102281.63;16120866;19;131542;-61
2023/10/01 03:36:02;;;;;;;5.10;1.30;;;;;;;20.14;49.41;102278.22;16119601;19;130244;-61
2023/10/01 03:41:27;;;;;;;5.03;1.10;;;;;;;20.14;49.10;102267.94;16117346;19;131401;-61
2023/10/01 03:46:52;;;;;;;2.25;1.30;;;;;;;20.14;49.17;102264.31;16121028;19;130615;-61
2023/10/01 03:52:14;;;;;;;2.70;1.02;;;;;;;20.12;48.94;102270.09;16118153;19;131774;-61
2023/10/01 03:57:52;;;;;;;3.63;1.27;;;;;;;20.11;49.41;102275.88;16120680;19;129482;-61
2023/10/01 04:03:14;;;;;;;2.50;1.00;;;;;;;20.11;49.44;102262.00;16119134;19;129965;-61
2023/10/01 04:08:44;;;;;;;2.60;1.13;;;;;;;20.10;49.33;102263.06;16115006;19;131025;-61
2023/10/01 04:14:10;;;;;;;2.42;1.30;;;;;;;20.09;49.23;102262.22;16118851;19;129511;-67
2023/10/01 04:19:32;;;;;;;2.35;1.05;;;;;;;20.08;49.01;102262.44;16116095;19;129264;-68
2023/10/01 04:25:01;;;;;;;3.30;1.10;;;;;;;20.08;49.29;102256.88;16119502;19;129660;-64
2023/10/01 04:30:26;;;;;;;1.48;0.90;;;;;;;20.07;48.94;102266.28;16116241;19;129808;-62
2023/10/01 04:35:55;;;;;;;1.83;0.90;;;;;;;20.06;49.20;102259.88;16118627;19;134616;-62
2023/10/01 04:41:22;;;;;;;4.28;1.10;;;;;;;20.06;49.39;102247.94;16117817;19;129846;-61
2023/10/01 04:46:45;;;;;;;1.80;1.10;;;;;;;20.04;49.02;102256.47;16119117;19;129688;-62
2023/10/01 04:52:11;;;;;;;2.05;1.17;;;;;;;20.04;49.20;102253.69;16115728;19;134979;-61
2023/10/01 04:57:36;;;;;;;1.83;1.05;;;;;;;20.04;49.22;102261.19;16118487;19;135953;-61
2023/10/01 05:02:58;;;;;;;2.47;1.10;;;;;;;20.04;49.36;102261.19;16119132;19;131490;-61
2023/10/01 05:08:20;;;;;;;1.67;0.90;;;;;;;20.03;49.16;102265.03;16113605;19;132019;-61
2023/10/01 05:13:47;;;;;;;2.97;1.08;;;;;;;20.01;49.17;102268.03;16108763;19;129689;-61
2023/10/01 05:19:09;;;;;;;1.55;1.02;;;;;;;20.01;49.15;102272.75;16117022;19;130600;-61
2023/10/01 05:24:35;;;;;;;2.17;0.85;;;;;;;20.02;49.31;102274.44;16115382;19;131170;-60
2023/10/01 05:29:57;;;;;;;2.13;1.10;;;;;;;19.99;48.91;102282.16;16108558;19;130894;-60
2023/10/01 05:35:22;;;;;;;2.40;1.00;;;;;;;19.99;49.39;102282.16;16112187;19;131340;-61
2023/10/01 05:40:44;;;;;;;1.93;1.00;;;;;;;19.98;48.96;102285.97;16113911;19;129448;-61
2023/10/01 05:46:10;;;;;;;2.25;1.13;;;;;;;19.97;49.08;102287.03;16114441;19;130868;-60
2023/10/01 05:51:44;;;;;;;2.17;1.10;;;;;;;19.97;49.21;102284.25;16113170;19;133690;-61
2023/10/01 05:57:07;;;;;;;1.35;1.00;;;;;;;19.97;48.87;102278.72;16111416;19;129036;-61
2023/10/01 06:02:47;;;;;;;2.63;1.58;;;;;;;19.96;49.36;102282.56;16109199;19;130950;-61
2023/10/01 06:08:17;;;;;;;2.00;1.15;;;;;;;19.95;48.97;102280.84;16113228;19;131615;-60
2023/10/01 06:13:49;;;;;;;2.05;0.98;;;;;;;19.95;49.16;102280.84;16112711;19;129625;-60
2023/10/01 06:19:14;;;;;;;1.98;1.20;;;;;;;19.95;48.98;102274.47;16113328;19;131991;-61
2023/10/01 06:24:36;;;;;;;2.67;1.10;;;;;;;19.94;49.36;102278.31;16114224;19;131605;-60
2023/10/01 06:30:00;;;;;;;2.05;1.08;;;;;;;19.94;49.17;102273.59;16114706;19;130473;-61
2023/10/01 06:35:23;;;;;;;2.33;1.00;;;;;;;19.96;48.95;102265.06;16105814;19;131036;-62
2023/10/01 06:40:46;;;;;;;2.72;1.25;;;;;;;20.01;49.10;102267.19;16113150;19;130703;-59
2023/10/01 06:46:08;;;;;;;3.88;1.42;;;;;;;20.08;48.38;102265.22;16106589;19;133108;-61
2023/10/01 06:51:43;;;;;;;3.10;1.35;;;;;;;20.17;48.16;102252.78;16113238;19;129769;-61
2023/10/01 06:57:16;;;;;;;2.25;1.20;;;;;;;20.23;48.41;102268.53;16110474;19;130054;-61
2023/10/01 07:02:40;;;;;;;2.50;1.40;;;;;;;20.31;48.03;102272.13;16107830;19;130526;-61
2023/10/01 07:08:06;;;;;;;3.60;1.35;;;;;;;20.35;48.04;102263.13;16113669;19;129422;-61
2023/10/01 07:13:29;;;;;;;2.97;1.50;;;;;;;20.41;48.17;102262.19;16110813;19;130871;-63
2023/10/01 07:18:53;;;;;;;1.83;1.25;;;;;;;20.48;48.31;102272.44;16126697;19;130867;-61
2023/10/01 07:24:15;;;;;;;3.25;1.65;;;;;;;20.52;48.02;102268.97;16123757;19;130430;-61
2023/10/01 07:29:42;;;;;;;5.18;1.40;;;;;;;20.55;47.84;102278.78;16120953;19;129471;-60
2023/10/01 07:35:07;;;;;;;3.38;1.60;;;;;;;20.55;47.72;102279.63;16120528;19;130981;-60
2023/10/01 07:40:50;;;;;;;4.33;1.90;;;;;;;20.55;47.52;102264.88;16111006;19;131414;-60
2023/10/01 07:46:11;;;;;;;6.97;2.17;;;;;;;20.57;47.49;102260.78;16121590;19;129707;-60
2023/10/01 07:51:38;;;;;;;4.80;2.38;;;;;;;20.60;47.43;102270.63;16124610;19;135214;-60
2023/10/01 07:57:01;;;;;;;6.45;2.45;;;;;;;20.66;47.24;102274.41;16119138;19;130657;-60
2023/10/01 08:02:27;;;;;;;9.75;2.55;;;;;;;20.87;47.27;102282.38;16119463;19;130833;-60
2023/10/01 08:07:50;;;;;;;7.63;2.97;;;;;;;22.00;45.32;102292.41;16118405;19;131280;-60
2023/10/01 08:13:25;;;;;;;14.50;3.85;;;;;;;25.39;39.41;102298.88;16119077;19;129942;-60
2023/10/01 08:18:47;;;;;;;13.07;3.47;;;;;;;27.74;35.10;102301.47;16121332;19;130615;-61
2023/10/01 08:24:18;;;;;;;7.80;3.60;;;;;;;28.96;33.18;102295.41;16116111;19;130176;-61
2023/10/01 08:35:29;;;;;;;8.02;4.18;;;;;;;25.86;36.21;102291.91;16115311;19;130927;-60
2023/10/01 08:41:02;;;;;;;7.45;3.83;;;;;;;24.57;38.34;102296.53;16115636;19;129475;-60
2023/10/01 08:46:31;;;;;;;9.20;4.10;;;;;;;23.73;39.65;102303.59;16116945;19;129543;-60
2023/10/01 08:52:18;;;;;;;7.35;4.13;;;;;;;23.14;40.92;102309.28;16116222;19;129979;-58
2023/10/01 08:57:45;;;;;;;7.53;4.15;;;;;;;22.72;41.53;102308.28;16112521;19;129815;-60
2023/10/01 09:03:11;;;;;;;8.68;4.60;;;;;;;22.43;42.17;102305.28;16117103;19;129645;-60
2023/10/01 09:08:43;;;;;;;7.50;3.85;;;;;;;22.21;42.42;102301.38;16115141;19;134950;-60
2023/10/01 09:14:18;;;;;;;8.93;4.45;;;;;;;22.03;43.37;102286.34;16113936;19;129479;-59
2023/10/01 09:19:50;;;;;;;9.05;4.80;;;;;;;21.89;43.54;102285.69;16114278;19;129872;-60
2023/10/01 09:25:19;;;;;;;9.20;4.80;;;;;;;21.79;43.69;102271.50;16115220;19;130451;-59
2023/10/01 09:31:19;;;;;;;13.70;4.90;;;;;;;21.71;43.89;102281.03;16110750;19;131119;-60
2023/10/01 09:36:45;;;;;;;11.65;5.38;;;;;;;21.63;44.36;102284.13;16108539;19;129816;-60
2023/10/01 09:42:25;;;;;;;14.75;5.45;;;;;;;21.57;44.85;102282.28;16111540;19;130462;-59
2023/10/01 09:47:47;;;;;;;12.07;5.72;;;;;;;21.51;44.79;102276.56;16111875;19;129364;-60
2023/10/01 09:53:14;;;;;;;21.33;5.85;;;;;;;21.48;45.18;102277.00;16109557;19;130098;-60
2023/10/01 09:58:37;;;;;;;18.02;6.72;;;;;;;21.44;45.34;102281.31;16108436;19;130761;-59
2023/10/01 10:04:04;;;;;;;9.40;5.32;;;;;;;21.40;45.43;102271.75;16109338;19;130667;-59
2023/10/01 10:09:30;;;;;;;14.70;5.78;;;;;;;21.36;45.64;102274.13;16108203;19;131067;-60
2023/10/01 10:14:56;;;;;;;10.88;5.97;;;;;;;21.33;45.59;102268.19;16107176;19;129735;-60
2023/10/01 10:20:29;;;;;;;14.73;5.90;;;;;;;21.31;45.74;102254.50;16111416;19;129814;-59
2023/10/01 10:26:34;;;;;;;12.73;6.45;;;;;;;21.30;46.20;102258.38;16112843;19;129392;-60
2023/10/01 10:32:09;;;;;;;13.35;6.90;;;;;;;21.30;46.25;102263.06;16106960;19;129683;-60
2023/10/01 10:37:35;;;;;;;15.47;6.37;;;;;;;21.27;46.29;102261.59;16111971;19;129700;-60
2023/10/01 10:43:00;;;;;;;18.27;6.90;;;;;;;21.26;46.39;102262.69;16109373;19;130676;-60
2023/10/01 10:48:49;;;;;;;19.77;7.60;;;;;;;21.28;46.61;102260.53;16113784;19;129818;-60
2023/10/01 10:54:16;;;;;;;21.85;6.78;;;;;;;21.27;46.85;102258.00;16121403;19;130814;-60
2023/10/01 10:59:47;;;;;;;15.13;7.00;;;;;;;21.28;46.94;102259.69;16126218;19;130170;-60
2023/10/01 11:05:10;;;;;;;13.45;7.32;;;;;;;21.27;47.12;102252.41;16126690;19;129736;-59
2023/10/01 11:10:47;;;;;;;15.05;7.32;;;;;;;21.29;46.74;102250.25;16124522;19;130575;-60
2023/10/01 11:16:16;;;;;;;13.68;6.60;;;;;;;21.28;46.98;102243.81;16124277;19;129242;-60
2023/10/01 11:21:58;;;;;;;12.20;6.90;;;;;;;21.29;47.31;102239.97;16123571;19;131159;-60
2023/10/01 11:27:25;;;;;;;12.57;7.22;;;;;;;21.28;47.00;102227.13;16122414;19;129524;-60
2023/10/01 11:33:01;;;;;;;17.85;7.68;;;;;;;21.31;47.42;102220.22;16124355;19;129584;-60
2023/10/01 11:38:27;;;;;;;15.60;7.07;;;;;;;21.28;47.36;102217.94;16119518;19;129599;-61
2023/10/01 11:43:58;;;;;;;13.10;6.68;;;;;;;21.29;47.53;102217.69;16123846;19;131057;-60
2023/10/01 11:49:45;;;;;;;12.98;6.85;;;;;;;21.31;47.28;102220.22;16118179;19;129200;-59
2023/10/01 11:55:23;;;;;;;15.77;7.00;;;;;;;21.29;47.12;102217.69;16122950;19;129442;-58
2023/10/01 12:00:59;;;;;;;14.45;7.13;;;;;;;21.31;47.29;102203.53;16121235;19;129573;-59
2023/10/01 12:06:34;;;;;;;;;;;;;;;21.29;47.33;102198.22;16123095;19;130365;-60
2023/10/01 12:12:03;;;;;;;18.55;7.95;;;;;;;21.31;47.49;102181.25;16122279;19;131903;-59
2023/10/01 12:17:27;;;;;;;15.57;7.25;;;;;;;21.32;47.80;102174.63;16119189;19;130459;-60
2023/10/01 12:23:08;;;;;;;16.20;7.55;;;;;;;21.31;47.46;102176.56;16118261;19;131719;-59
2023/10/01 12:28:30;;;;;;;12.00;6.95;;;;;;;21.31;47.57;102165.44;16123095;19;130610;-60
2023/10/01 12:33:58;;;;;;;15.88;7.60;;;;;;;21.31;47.62;102150.66;16123089;19;129720;-59
2023/10/01 12:39:27;;;;;;;18.05;7.80;;;;;;;21.30;47.71;102146.16;16125772;19;129477;-60
2023/10/01 12:44:49;;;;;;;12.57;6.95;;;;;;;21.30;47.79;102135.91;16124785;19;130564;-59
2023/10/01 12:50:13;;;;;;;15.75;7.30;;;;;;;21.32;47.62;102132.88;16130596;19;129579;-60
2023/10/01 12:55:35;;;;;;;15.10;7.40;;;;;;;21.32;47.45;102130.09;16118063;19;131715;-60
2023/10/01 13:00:57;;;;;;;17.02;8.18;;;;;;;21.32;47.28;102133.72;16117709;19;129655;-60
2023/10/01 13:06:19;;;;;;;15.52;7.28;;;;;;;21.32;47.14;102125.38;16121912;19;130252;-60
2023/10/01 13:11:50;;;;;;;17.95;7.80;;;;;;;21.32;47.23;102128.16;16136382;19;129307;-58
2023/10/01 13:17:22;;;;;;;17.55;8.20;;;;;;;21.32;47.40;102128.16;16187078;19;129164;-60
2023/10/01 13:22:48;;;;;;;14.38;7.82;;;;;;;21.32;46.91;102114.25;16190892;19;129557;-59
2023/10/01 13:28:17;;;;;;;18.65;8.88;;;;;;;21.32;46.89;102107.81;16192884;19;130209;-59
2023/10/01 14:13:35;;;;;;;16.33;9.50;;;;;;;21.32;46.45;102080.84;16126767;19;129610;-60
2023/10/01 14:18:57;;;;;;;16.83;9.13;;;;;;;21.33;46.55;102082.53;16106157;19;129904;-60
2023/10/01 14:24:26;;;;;;;23.17;10.10;;;;;;;21.35;46.41;102079.50;16115717;19;130703;-60
2023/10/01 14:30:00;;;;;;;17.42;9.30;;;;;;;21.35;46.84;102071.16;16121537;19;131302;-59
2023/10/01 14:35:25;;;;;;;19.70;9.32;;;;;;;21.36;46.53;102057.00;16115298;19;130285;-54
2023/10/01 14:40:56;;;;;;;20.20;9.20;;;;;;;21.38;46.87;102059.56;16120778;19;130553;-56
2023/10/01 14:46:20;;;;;;;15.38;9.10;;;;;;;21.39;47.10;102055.69;16120523;19;130816;-58
2023/10/01 14:51:48;;;;;;;17.08;9.27;;;;;;;21.41;47.07;102056.31;16123150;19;131243;-58
2023/10/01 14:57:16;;;;;;;19.45;9.25;;;;;;;21.43;46.86;102040.19;16120654;19;131400;-58
2023/10/01 15:02:40;;;;;;;16.30;8.10;;;;;;;21.45;47.25;102039.97;16125406;19;130447;-58
2023/10/01 15:08:03;;;;;;;22.25;9.13;;;;;;;21.45;46.94;102037.19;16123338;19;130494;-59
2023/10/01 15:13:34;;;;;;;23.92;8.48;;;;;;;21.46;47.34;102027.75;16124059;19;129954;-63
2023/10/01 15:19:01;;;;;;;;;;;;;;;21.44;47.17;102036.31;16125238;19;129877;-62
2023/10/01 15:24:26;;;;;;;17.17;8.80;;;;;;;21.48;47.10;102042.25;16130228;19;129345;-63
2023/10/01 15:29:52;;;;;;;20.88;8.93;;;;;;;21.46;47.17;102034.16;16132884;19;129640;-62
2023/10/01 15:35:22;;;;;;;16.48;8.85;;;;;;;21.45;47.11;102031.63;16132957;19;129889;-62
2023/10/01 15:40:51;;;;;;;13.55;7.28;;;;;;;21.45;47.40;102038.03;16133899;19;130165;-62
2023/10/01 15:46:14;;;;;;;16.83;8.93;;;;;;;21.45;47.26;102034.41;16132148;19;129854;-62
2023/10/01 15:51:44;;;;;;;15.70;7.40;;;;;;;21.44;47.13;102025.19;16129859;19;129459;-63
2023/10/01 15:57:08;;;;;;;16.08;8.00;;;;;;;21.44;47.59;102004.88;16118648;19;130633;-63
2023/10/01 16:02:31;;;;;;;18.77;8.00;;;;;;;21.43;47.43;102003.16;16119727;19;130131;-62
2023/10/01 16:07:53;;;;;;;16.70;8.80;;;;;;;21.44;47.20;102002.91;16128127;19;131280;-62
2023/10/01 16:13:18;;;;;;;14.85;8.65;;;;;;;21.45;47.18;102003.78;16126670;19;129489;-62
2023/10/01 16:18:41;;;;;;;16.47;9.50;;;;;;;21.47;47.73;102005.22;16125030;19;131313;-62
2023/10/01 16:24:14;;;;;;;19.17;9.27;;;;;;;21.47;47.71;102008.00;16127614;19;133100;-62
2023/10/01 16:29:43;;;;;;;23.30;10.15;;;;;;;21.47;47.66;102012.75;16123949;19;129717;-62
2023/10/01 16:35:17;;;;;;;20.23;9.60;;;;;;;21.48;47.65;102015.28;16123221;19;129442;-62
2023/10/01 16:40:39;;;;;;;15.07;9.35;;;;;;;21.46;47.72;102016.63;16120794;19;130523;-63
2023/10/01 16:46:01;;;;;;;21.58;9.88;;;;;;;21.43;47.80;102020.72;16124844;19;131229;-62
2023/10/01 16:51:28;;;;;;;19.95;10.30;;;;;;;21.43;47.48;102023.50;16125734;19;130419;-62
2023/10/01 16:56:51;;;;;;;18.15;9.95;;;;;;;21.41;47.63;102025.69;16122905;19;130426;-62
2023/10/01 17:02:19;;;;;;;20.60;9.65;;;;;;;21.39;47.71;102022.28;16119844;19;129696;-61
2023/10/01 17:07:41;;;;;;;29.75;14.43;;;;;;;21.33;47.88;102018.53;16118915;19;129831;-61
2023/10/01 17:13:14;;;;;;;29.63;15.02;;;;;;;21.31;48.25;102015.13;16123972;19;129935;-60
2023/10/01 17:18:42;;;;;;;25.60;13.63;;;;;;;21.28;48.37;102012.81;16115707;19;130498;-60
2023/10/01 17:24:06;;;;;;;28.83;13.80;;;;;;;21.25;48.19;102023.59;16121458;19;130961;-60
2023/10/01 17:29:32;;;;;;;28.50;14.50;;;;;;;21.21;48.34;102021.25;16119229;19;133633;-61
2023/10/01 17:34:56;;;;;;;;;;;;;;;21.17;48.56;102022.81;16114924;19;129812;-61
2023/10/01 17:40:23;;;;;;;25.85;14.50;;;;;;;21.19;48.09;102025.38;16120647;19;129440;-60
2023/10/01 17:45:46;;;;;;;29.00;13.85;;;;;;;21.16;48.19;102017.50;16122306;19;130031;-60
2023/10/01 17:51:08;;;;;;;23.83;14.10;;;;;;;21.13;48.42;102018.81;16118039;19;131448;-61
2023/10/01 17:56:37;;;;;;;29.38;14.48;;;;;;;21.14;48.45;102019.66;16108171;19;130766;-61
2023/10/01 18:02:05;;;;;;;25.35;13.93;;;;;;;21.12;48.72;102013.47;16115550;19;129340;-61
2023/10/01 18:07:29;;;;;;;23.13;12.38;;;;;;;21.11;48.65;102018.22;16116012;19;130062;-61
2023/10/01 18:12:51;;;;;;;22.65;13.07;;;;;;;21.09;48.36;102020.38;16111617;19;130056;-59
2023/10/01 18:18:14;;;;;;;27.17;13.45;;;;;;;21.09;48.79;102020.38;16112940;19;131654;-59
2023/10/01 18:23:38;;;;;;;25.50;12.50;;;;;;;21.09;49.01;102028.72;16111918;19;130884;-59
2023/10/01 18:29:01;;;;;;;24.33;12.45;;;;;;;21.10;49.07;102027.63;16108147;19;129633;-60
2023/10/01 18:34:25;;;;;;;32.30;12.05;;;;;;;21.10;49.12;102030.44;16115637;19;129457;-59
2023/10/01 18:39:50;;;;;;;20.73;11.67;;;;;;;21.11;49.32;102040.47;16111438;19;130021;-61
2023/10/01 18:45:13;;;;;;;20.43;10.80;;;;;;;21.12;49.65;102033.81;16116822;19;129734;-60
2023/10/01 18:50:35;;;;;;;21.13;11.27;;;;;;;21.12;50.25;102031.03;16111508;19;129431;-59
2023/10/01 18:55:57;;;;;;;22.80;11.65;;;;;;;21.14;50.15;102030.78;16111492;19;129974;-59
2023/10/01 19:01:19;;;;;;;24.55;11.07;;;;;;;21.15;50.43;102022.22;16109572;19;130154;-59
2023/10/01 19:06:43;;;;;;;21.95;10.60;;;;;;;21.16;50.50;102028.63;16102593;19;129522;-62
2023/10/01 19:12:05;;;;;;;33.17;10.48;;;;;;;21.17;50.44;102033.13;16114365;19;131626;-59
2023/10/01 19:17:28;;;;;;;24.80;10.85;;;;;;;21.17;50.76;102031.16;16123214;19;130899;-59
2023/10/01 19:22:57;;;;;;;23.17;9.52;;;;;;;21.18;51.10;102034.81;16128196;19;129723;-60
2023/10/01 19:28:19;;;;;;;22.05;9.73;;;;;;;21.18;51.10;102020.91;16122659;19;130007;-58
2023/10/01 19:33:51;;;;;;;25.52;9.10;;;;;;;21.19;51.24;102028.16;16122485;19;129535;-59
2023/10/01 19:39:23;;;;;;;21.52;10.15;;;;;;;21.19;51.46;102023.44;16127709;19;136043;-58
2023/10/01 19:44:45;;;;;;;20.25;9.55;;;;;;;21.19;51.42;102020.66;16119835;19;132110;-58
2023/10/01 19:50:40;;;;;;;16.25;8.80;;;;;;;21.20;51.49;102014.00;16123724;19;129819;-60
2023/10/01 19:56:07;;;;;;;18.00;9.30;;;;;;;21.19;51.74;102012.31;16118286;19;130154;-56
2023/10/01 20:01:31;;;;;;;21.10;9.10;;;;;;;21.19;52.10;102023.44;16120728;19;130734;-58
2023/10/01 20:06:53;;;;;;;23.13;9.02;;;;;;;21.21;52.12;102020.44;16122639;19;130466;-62
2023/10/01 20:12:19;;;;;;;19.80;9.02;;;;;;;21.24;52.43;102019.09;16120485;19;130587;-58
2023/10/01 20:17:43;;;;;;;17.73;8.57;;;;;;;21.24;52.16;102024.66;16119956;19;130081;-58
2023/10/01 20:23:06;;;;;;;25.77;9.55;;;;;;;21.23;51.91;102029.41;16117315;19;129570;-58
2023/10/01 20:28:28;;;;;;;21.50;8.60;;;;;;;21.21;51.61;102021.25;16121446;19;132618;-61
2023/10/01 20:33:53;;;;;;;22.10;8.80;;;;;;;21.18;51.92;102021.72;16129049;19;129524;-61
2023/10/01 20:39:33;;;;;;;14.80;7.97;;;;;;;21.18;52.06;102026.47;16128099;19;130830;-61
2023/10/01 20:44:55;;;;;;;16.80;9.05;;;;;;;21.16;51.80;102029.50;16124217;19;130332;-61
2023/10/01 20:50:40;;;;;;;17.42;8.55;;;;;;;21.19;51.59;102028.16;16126568;19;129871;-61
2023/10/01 20:56:08;;;;;;;15.35;8.00;;;;;;;21.16;51.35;102021.16;16122572;19;129745;-62
2023/10/01 21:01:39;;;;;;;20.40;9.23;;;;;;;21.14;51.89;102026.09;16123201;19;129856;-62
2023/10/01 21:07:19;;;;;;;20.05;8.38;;;;;;;21.12;51.61;102022.69;16124710;19;129673;-62
2023/10/01 21:12:42;;;;;;;15.57;7.93;;;;;;;21.11;51.94;102023.78;16128720;19;129739;-64
2023/10/01 21:18:05;;;;;;;17.42;8.10;;;;;;;21.10;51.87;102013.72;16125753;19;130406;-62
2023/10/01 21:23:27;;;;;;;15.00;7.47;;;;;;;21.08;51.92;102004.75;16114230;19;129586;-62
2023/10/01 21:28:54;;;;;;;16.58;7.82;;;;;;;21.09;52.07;102013.97;16117893;19;130129;-64
2023/10/01 21:34:16;;;;;;;11.68;7.40;;;;;;;21.07;51.88;102014.19;16115055;19;130414;-62
2023/10/01 21:39:38;;;;;;;13.45;7.00;;;;;;;21.05;52.29;102013.56;16119875;19;129632;-64
2023/10/01 21:45:32;;;;;;;14.88;6.93;;;;;;;21.03;52.00;102008.25;16116207;19;129729;-62
2023/10/01 21:51:00;;;;;;;13.68;7.45;;;;;;;21.03;51.85;102001.88;16118105;19;129896;-63
2023/10/01 21:56:23;;;;;;;16.13;7.65;;;;;;;21.02;52.09;101991.81;16116338;19;129831;-61
2023/10/01 22:01:47;;;;;;;15.32;8.32;;;;;;;21.00;52.21;101991.19;16113660;19;129709;-63
2023/10/01 22:07:10;;;;;;;14.90;7.88;;;;;;;21.00;52.16;101986.47;16112130;19;131507;-62
2023/10/01 22:12:47;;;;;;;14.43;7.28;;;;;;;21.00;52.27;101974.50;16114455;19;130751;-61
2023/10/01 22:18:28;;;;;;;17.15;6.97;;;;;;;20.98;52.25;101988.66;16114030;19;130914;-63
2023/10/01 22:23:55;;;;;;;13.05;7.32;;;;;;;20.97;52.28;101983.31;16111292;19;130540;-63
2023/10/01 22:29:20;;;;;;;13.27;6.78;;;;;;;20.96;52.62;101987.19;16108347;19;130370;-70
2023/10/01 22:34:56;;;;;;;;;;;;;;;20.92;52.64;101983.19;16113727;19;130615;-66
2023/10/01 22:40:19;;;;;;;14.50;6.93;;;;;;;20.94;52.51;101983.78;16115970;19;130744;-66
2023/10/01 22:45:54;;;;;;;11.98;6.97;;;;;;;20.92;52.67;101988.75;16120975;19;129338;-68
2023/10/01 22:51:23;;;;;;;9.80;5.95;;;;;;;20.89;52.45;101993.72;16122987;19;130313;-64
2023/10/01 22:56:46;;;;;;;14.50;6.47;;;;;;;20.89;52.41;101985.38;16124930;19;129826;-70
2023/10/01 23:02:21;;;;;;;11.98;7.07;;;;;;;20.88;52.31;101982.78;16123885;19;133536;-63
2023/10/01 23:07:47;;;;;;;14.40;7.03;;;;;;;20.88;52.62;101985.59;16123029;19;130934;-62
2023/10/01 23:13:10;;;;;;;12.27;6.43;;;;;;;20.87;52.48;101990.31;16123641;19;130885;-63
2023/10/01 23:18:36;;;;;;;13.73;6.95;;;;;;;20.86;52.66;101987.78;16124659;19;130957;-63
2023/10/01 23:23:58;;;;;;;13.80;6.80;;;;;;;20.85;52.62;101984.13;16126713;19;129446;-63
2023/10/01 23:29:26;;;;;;;11.18;6.28;;;;;;;20.84;52.77;101988.00;16120149;19;129488;-62
2023/10/01 23:34:54;;;;;;;13.10;6.53;;;;;;;20.84;52.63;101984.38;16116370;19;131993;-62
2023/10/01 23:40:23;;;;;;;10.63;6.78;;;;;;;20.83;52.78;101991.84;16117598;19;129933;-62
2023/10/01 23:45:58;;;;;;;12.80;6.82;;;;;;;20.82;52.87;101990.16;16115149;19;131821;-62
2023/10/01 23:51:21;;;;;;;10.40;5.97;;;;;;;20.81;52.82;101980.13;16119945;19;129966;-61
2023/10/01 23:56:43;;;;;;;9.95;5.90;;;;;;;20.80;53.03;101975.63;16121905;19;129515;-62
